Time;durP1;ratioP1;P1;durP2;ratioP2;P2;SDS_P1;SDS_P2;PMS_P1;PMS_P2;Temp;Humidity;BMP_temperature;BMP_pressure;BME280_temperature;BME280_humidity;BME280_pressure;Samples;Min_cycle;Max_cycle;Signal;HPM_P1;HPM_P2
2023/11/29 00:02:12;;;;;;;30.92;17.08;;;;;;;5.11;100.00;98485.56;5041156;28;20029;-81
2023/11/29 00:04:37;;;;;;;33.78;18.90;;;;;;;5.07;100.00;98471.19;5054906;28;20193;-82
2023/11/29 00:07:03;;;;;;;31.58;18.52;;;;;;;5.04;100.00;98456.56;5054745;28;20481;-82
2023/11/29 00:09:28;;;;;;;42.08;25.63;;;;;;;5.01;100.00;98456.22;5055225;28;20033;-82
2023/11/29 00:11:54;;;;;;;69.38;42.78;;;;;;;4.94;100.00;98452.84;5054094;28;20073;-82
2023/11/29 00:14:19;;;;;;;42.58;25.85;;;;;;;4.98;100.00;98461.94;5070399;28;20089;-81
2023/11/29 00:16:44;;;;;;;63.83;43.30;;;;;;;4.74;100.00;98453.91;5052503;28;20145;-82
2023/11/29 00:19:10;;;;;;;37.92;22.73;;;;;;;4.79;100.00;98447.94;5052298;28;20053;-82
2023/11/29 00:21:43;;;;;;;32.45;19.40;;;;;;;4.73;100.00;98457.53;5052646;28;20032;-81
2023/11/29 00:24:09;;;;;;;61.20;38.88;;;;;;;4.39;100.00;98459.75;5052443;28;20040;-81
2023/11/29 00:26:34;;;;;;;37.30;21.58;;;;;;;4.28;100.00;98449.09;5052482;28;20037;-82
2023/11/29 00:29:00;;;;;;;43.17;29.80;;;;;;;4.62;100.00;98453.81;5053443;28;20468;-82
2023/11/29 00:31:25;;;;;;;43.05;25.65;;;;;;;4.58;100.00;98465.84;5054597;28;20029;-82
2023/11/29 00:33:50;;;;;;;35.10;23.13;;;;;;;4.54;100.00;98459.38;5054987;28;20449;-81
2023/11/29 00:36:16;;;;;;;36.65;23.00;;;;;;;4.41;100.00;98438.38;5054225;28;20090;-82
2023/11/29 00:38:41;;;;;;;38.90;22.40;;;;;;;4.50;100.00;98466.13;5054509;28;20115;-81
2023/11/29 00:41:07;;;;;;;35.15;19.48;;;;;;;4.33;100.00;98418.38;5054432;28;20404;-81
2023/11/29 00:43:35;;;;;;;33.80;20.35;;;;;;;4.47;100.00;98439.34;5054421;28;20115;-81
2023/11/29 00:46:01;;;;;;;;;;;;;;;4.66;100.00;98456.00;5054787;28;20025;-82
2023/11/29 00:48:26;;;;;;;48.83;36.00;;;;;;;4.36;100.00;98433.78;5054493;28;20303;-81
2023/11/29 00:50:52;;;;;;;42.83;29.55;;;;;;;4.27;100.00;98415.78;5054440;28;20408;-82
2023/11/29 00:53:18;;;;;;;54.55;42.47;;;;;;;4.26;100.00;98446.66;5054385;28;20504;-81
2023/11/29 00:55:44;;;;;;;44.63;30.50;;;;;;;4.46;100.00;98482.63;5054318;28;20115;-82
2023/11/29 00:58:09;;;;;;;37.28;21.23;;;;;;;4.51;100.00;98469.56;5053896;28;20093;-81
2023/11/29 01:00:35;;;;;;;74.97;62.90;;;;;;;4.81;100.00;98486.31;5054058;28;20055;-81
2023/11/29 01:03:00;;;;;;;52.60;37.70;;;;;;;4.79;100.00;98467.22;5054129;28;20032;-85
2023/11/29 01:05:26;;;;;;;64.63;44.20;;;;;;;4.50;100.00;98409.88;5072166;28;20510;-81
2023/11/29 01:07:51;;;;;;;71.03;48.22;;;;;;;4.80;100.00;98453.00;5071910;28;20040;-80
2023/11/29 01:10:17;;;;;;;44.55;26.60;;;;;;;4.73;100.00;98460.19;5054120;28;20036;-82
2023/11/29 01:12:42;;;;;;;84.95;64.32;;;;;;;4.65;100.00;98430.63;5054000;28;20040;-80
2023/11/29 01:15:08;;;;;;;54.63;41.22;;;;;;;4.87;100.00;98458.22;5071988;28;20037;-82
2023/11/29 01:17:33;;;;;;;42.42;29.23;;;;;;;4.73;100.00;98451.47;5071572;28;20107;-81
2023/11/29 01:19:58;;;;;;;91.25;77.10;;;;;;;4.83;100.00;98471.03;5053529;28;20040;-81
2023/11/29 01:22:24;;;;;;;80.25;60.22;;;;;;;4.76;100.00;98454.47;5071697;28;20111;-81
2023/11/29 01:24:49;;;;;;;144.15;102.88;;;;;;;4.92;100.00;98460.19;5071382;28;20031;-80
2023/11/29 01:27:15;;;;;;;121.13;86.18;;;;;;;4.97;100.00;98449.78;5054677;28;20052;-81
2023/11/29 01:29:41;;;;;;;214.80;154.48;;;;;;;4.87;100.00;98483.81;5033643;28;20031;-81
2023/11/29 01:32:06;;;;;;;269.52;192.27;;;;;;;4.68;100.00;98481.19;5051686;28;20079;-81
2023/11/29 01:34:32;;;;;;;42.33;29.08;;;;;;;4.53;100.00;98484.16;5033877;28;20052;-81
2023/11/29 01:36:57;;;;;;;35.13;20.55;;;;;;;4.73;100.00;98499.78;5050229;28;20416;-81
2023/11/29 01:39:22;;;;;;;49.70;35.55;;;;;;;4.78;100.00;98486.75;5071399;28;20035;-82
2023/11/29 01:41:48;;;;;;;276.33;179.52;;;;;;;4.95;100.00;98496.72;5071097;28;20028;-81
2023/11/29 01:44:14;;;;;;;325.95;206.70;;;;;;;4.69;100.00;98460.84;5053369;28;20093;-82
2023/11/29 01:46:39;;;;;;;101.78;61.30;;;;;;;4.79;100.00;98464.59;5053435;28;20058;-81
2023/11/29 01:49:05;;;;;;;140.75;80.63;;;;;;;4.71;100.00;98491.28;5053494;28;20028;-81
2023/11/29 01:51:31;;;;;;;46.72;28.02;;;;;;;4.54;100.00;98495.53;5053309;28;20032;-81
2023/11/29 01:54:00;;;;;;;30.50;17.70;;;;;;;4.57;100.00;98530.22;5071180;28;20028;-81
2023/11/29 01:56:26;;;;;;;66.93;40.55;;;;;;;4.68;100.00;98523.44;5052745;28;20516;-81
2023/11/29 01:58:52;;;;;;;47.10;28.73;;;;;;;4.59;100.00;98493.84;5053302;28;20068;-81
2023/11/29 02:01:18;;;;;;;36.50;22.30;;;;;;;4.68;100.00;98496.19;5053082;28;20024;-81
2023/11/29 02:03:44;;;;;;;99.65;53.90;;;;;;;4.69;100.00;98482.78;5070669;28;20424;-81
2023/11/29 02:06:11;;;;;;;89.88;55.78;;;;;;;5.01;100.00;98517.00;5053124;28;20028;-82
2023/11/29 02:08:36;;;;;;;237.23;131.55;;;;;;;4.73;100.00;98520.91;5052977;28;20475;-81
2023/11/29 02:11:02;;;;;;;31.05;18.38;;;;;;;4.71;100.00;98525.63;5070843;28;20108;-82
2023/11/29 02:13:27;;;;;;;39.85;26.05;;;;;;;4.40;100.00;98503.56;5052707;28;20066;-81
2023/11/29 02:15:53;;;;;;;34.22;20.55;;;;;;;4.59;100.00;98535.28;5052890;28;20032;-81
2023/11/29 02:18:18;;;;;;;30.63;17.70;;;;;;;4.48;100.00;98525.44;5052440;28;20037;-85
2023/11/29 02:20:44;;;;;;;29.70;19.52;;;;;;;4.33;100.00;98505.47;5052499;28;20048;-81
2023/11/29 02:23:23;;;;;;;31.63;17.30;;;;;;;4.37;100.00;98538.34;5052253;28;20069;-81
2023/11/29 02:25:49;;;;;;;29.80;18.50;;;;;;;4.46;100.00;98551.25;5052752;28;20048;-81
2023/11/29 02:28:14;;;;;;;28.90;17.95;;;;;;;4.38;100.00;98550.50;5052823;28;20032;-82
2023/11/29 02:30:40;;;;;;;28.33;17.52;;;;;;;4.03;100.00;98572.06;5052763;28;20036;-81
2023/11/29 02:33:05;;;;;;;27.98;15.77;;;;;;;4.11;100.00;98591.31;5052836;28;20024;-81
2023/11/29 02:35:31;;;;;;;28.20;17.98;;;;;;;4.11;100.00;98586.03;5052670;28;20496;-81
2023/11/29 02:37:56;;;;;;;26.02;16.30;;;;;;;4.10;100.00;98606.31;5071075;28;20031;-81
2023/11/29 02:40:23;;;;;;;28.38;17.60;;;;;;;4.00;100.00;98588.31;5052608;28;20120;-82
2023/11/29 02:42:48;;;;;;;31.45;18.48;;;;;;;4.07;100.00;98580.34;5070705;28;20024;-83
2023/11/29 02:45:14;;;;;;;29.70;17.48;;;;;;;4.06;100.00;98593.75;5070701;28;20029;-81
2023/11/29 02:47:39;;;;;;;31.42;17.70;;;;;;;3.45;100.00;98582.69;5070731;28;20028;-81
2023/11/29 02:50:06;;;;;;;30.85;17.73;;;;;;;3.76;100.00;98589.03;5052694;28;20025;-81
2023/11/29 02:52:31;;;;;;;32.42;17.95;;;;;;;3.86;100.00;98615.75;5070500;28;20066;-81
2023/11/29 02:54:57;;;;;;;32.20;18.70;;;;;;;3.48;100.00;98595.47;5052735;28;20113;-81
2023/11/29 02:57:22;;;;;;;29.65;17.77;;;;;;;3.69;100.00;98612.00;5052294;28;20032;-81
2023/11/29 02:59:47;;;;;;;29.98;17.80;;;;;;;3.52;100.00;98577.41;5052867;28;20027;-82
2023/11/29 03:02:14;;;;;;;28.15;16.80;;;;;;;3.43;100.00;98600.53;5070372;28;20031;-82
2023/11/29 03:04:39;;;;;;;29.75;16.90;;;;;;;3.72;100.00;98624.75;5052804;28;20492;-81
2023/11/29 03:07:05;;;;;;;28.75;17.45;;;;;;;3.74;100.00;98631.47;5070474;28;20056;-82
2023/11/29 03:09:31;;;;;;;28.42;17.13;;;;;;;3.70;100.00;98613.63;5070330;28;20029;-83
2023/11/29 03:11:56;;;;;;;27.50;16.50;;;;;;;3.56;100.00;98608.41;5052729;28;20436;-81
2023/11/29 03:14:22;;;;;;;37.85;26.33;;;;;;;3.32;100.00;98593.31;5070358;28;20115;-81
2023/11/29 03:16:47;;;;;;;37.88;22.70;;;;;;;3.28;100.00;98619.25;5052700;28;20067;-81
2023/11/29 03:19:13;;;;;;;26.00;16.58;;;;;;;3.01;100.00;98621.13;5052250;28;20041;-81
2023/11/29 03:21:38;;;;;;;26.75;15.70;;;;;;;2.77;100.00;98612.03;5052961;28;20116;-81
2023/11/29 03:24:04;;;;;;;32.17;22.15;;;;;;;3.17;100.00;98665.47;5052449;28;20047;-83
2023/11/29 03:26:29;;;;;;;27.67;17.00;;;;;;;2.68;100.00;98639.59;5074505;28;20055;-84
2023/11/29 03:28:55;;;;;;;45.97;27.65;;;;;;;2.99;100.00;98675.84;5074074;28;20088;-84
2023/11/29 03:31:20;;;;;;;37.05;21.20;;;;;;;3.27;100.00;98680.03;5075912;28;20037;-82
2023/11/29 03:33:46;;;;;;;31.40;18.95;;;;;;;3.23;100.00;98666.50;5075332;28;20012;-84
2023/11/29 03:36:11;;;;;;;33.95;20.30;;;;;;;2.70;100.00;98632.31;5078772;28;20021;-82
2023/11/29 03:38:37;;;;;;;39.67;25.00;;;;;;;3.14;100.00;98670.34;5079010;28;20040;-82
2023/11/29 03:41:02;;;;;;;35.67;21.10;;;;;;;2.91;100.00;98707.66;5096102;28;20626;-83
2023/11/29 03:43:28;;;;;;;38.45;23.52;;;;;;;2.89;100.00;98683.34;5096042;28;20016;-83
2023/11/29 03:45:56;;;;;;;36.20;24.38;;;;;;;2.91;100.00;98707.66;5077932;28;20078;-84
2023/11/29 03:48:21;;;;;;;40.67;26.23;;;;;;;2.77;100.00;98697.09;5075413;28;20036;-84
2023/11/29 03:50:47;;;;;;;45.35;28.92;;;;;;;2.97;100.00;98696.31;5068636;28;20029;-82
2023/11/29 03:53:12;;;;;;;40.50;24.20;;;;;;;3.28;100.00;98682.47;5068281;28;20033;-84
2023/11/29 03:55:38;;;;;;;37.50;23.35;;;;;;;3.28;100.00;98693.03;5068317;28;20063;-84
2023/11/29 03:58:03;;;;;;;40.28;26.58;;;;;;;3.31;100.00;98686.53;5067601;28;20096;-83
2023/11/29 04:00:29;;;;;;;39.70;25.40;;;;;;;3.05;100.00;98651.31;5067937;28;20055;-82
2023/11/29 04:02:54;;;;;;;38.55;25.15;;;;;;;3.17;100.00;98681.28;5066232;28;20034;-82
2023/11/29 04:05:20;;;;;;;37.90;23.45;;;;;;;3.09;100.00;98670.97;5065462;28;20048;-83
2023/11/29 04:07:45;;;;;;;39.75;23.08;;;;;;;2.98;100.00;98659.22;5063552;28;20041;-82
2023/11/29 04:10:10;;;;;;;43.40;26.83;;;;;;;3.17;100.00;98678.66;5061423;28;20027;-83
2023/11/29 04:12:36;;;;;;;38.03;23.67;;;;;;;3.04;100.00;98665.50;5059042;28;20025;-83
2023/11/29 04:15:01;;;;;;;35.63;22.13;;;;;;;3.25;100.00;98698.72;5074862;28;20403;-82
2023/11/29 04:17:27;;;;;;;35.42;22.38;;;;;;;3.42;100.00;98726.25;5056019;28;20032;-82
2023/11/29 04:19:52;;;;;;;37.90;23.25;;;;;;;3.24;100.00;98733.16;5055524;28;20048;-81
2023/11/29 04:22:18;;;;;;;64.43;42.40;;;;;;;3.20;100.00;98725.66;5055518;28;20024;-83
2023/11/29 04:24:43;;;;;;;44.65;30.20;;;;;;;3.01;100.00;98744.91;5055049;28;20040;-82
2023/11/29 04:27:08;;;;;;;50.83;32.08;;;;;;;3.05;100.00;98725.06;5073278;28;20028;-81
2023/11/29 04:29:36;;;;;;;48.47;31.05;;;;;;;2.97;100.00;98698.94;5055242;28;20027;-81
2023/11/29 04:32:02;;;;;;;40.72;29.48;;;;;;;3.13;100.00;98705.63;5073197;28;20051;-82
2023/11/29 04:34:27;;;;;;;39.38;27.13;;;;;;;3.09;100.00;98705.22;5054929;28;20473;-82
2023/11/29 04:36:52;;;;;;;31.90;20.23;;;;;;;3.05;100.00;98709.25;5054802;28;20025;-82
2023/11/29 04:39:18;;;;;;;37.25;20.45;;;;;;;3.27;100.00;98745.91;5054985;28;20028;-81
2023/11/29 04:41:44;;;;;;;67.07;39.58;;;;;;;2.81;100.00;98716.75;5054661;28;20025;-81
2023/11/29 04:44:09;;;;;;;48.25;30.45;;;;;;;2.80;100.00;98733.56;5054609;28;20036;-81
2023/11/29 04:46:35;;;;;;;74.25;30.00;;;;;;;2.92;100.00;98736.41;5053766;28;20473;-82
2023/11/29 04:49:01;;;;;;;67.72;30.48;;;;;;;2.98;100.00;98745.31;5054538;28;20029;-82
2023/11/29 04:51:26;;;;;;;34.58;19.83;;;;;;;2.85;100.00;98740.84;5054289;28;20036;-82
2023/11/29 04:53:52;;;;;;;37.78;19.73;;;;;;;3.11;100.00;98758.50;5054130;28;20071;-82
2023/11/29 04:56:18;;;;;;;32.58;19.63;;;;;;;3.01;100.00;98739.66;5072435;28;20063;-82
2023/11/29 04:58:46;;;;;;;35.70;20.08;;;;;;;3.26;100.00;98775.94;5054323;28;20059;-82
2023/11/29 05:01:12;;;;;;;32.75;19.65;;;;;;;3.21;100.00;98766.00;5072390;28;20020;-82
2023/11/29 05:03:38;;;;;;;34.13;19.83;;;;;;;3.12;100.00;98752.19;5046379;28;20124;-82
2023/11/29 05:06:05;;;;;;;37.13;21.42;;;;;;;3.27;100.00;98785.44;5034199;28;20051;-83
2023/11/29 05:08:32;;;;;;;40.50;22.35;;;;;;;3.15;100.00;98764.97;5054064;28;20036;-82
2023/11/29 05:11:01;;;;;;;39.20;23.88;;;;;;;3.05;100.00;98746.13;5054550;28;20039;-82
2023/11/29 05:13:27;;;;;;;41.88;24.05;;;;;;;3.36;100.00;98792.13;5053871;28;20032;-82
2023/11/29 05:15:52;;;;;;;44.33;24.35;;;;;;;3.35;100.00;98788.69;5054119;28;20120;-82
2023/11/29 05:18:17;;;;;;;49.53;29.65;;;;;;;3.13;100.00;98760.94;5053999;28;20064;-82
2023/11/29 05:20:43;;;;;;;38.88;23.92;;;;;;;2.60;100.00;98769.56;5053696;28;20471;-82
2023/11/29 05:23:08;;;;;;;38.85;23.85;;;;;;;2.69;100.00;98780.72;5054033;28;20408;-83
2023/11/29 05:25:34;;;;;;;37.05;24.35;;;;;;;2.73;100.00;98768.78;5071727;28;20060;-82
2023/11/29 05:27:59;;;;;;;41.50;24.27;;;;;;;2.98;100.00;98803.25;5071727;28;20028;-82
2023/11/29 05:30:25;;;;;;;61.60;35.00;;;;;;;2.78;100.00;98792.69;5053871;28;20032;-82
2023/11/29 05:32:51;;;;;;;50.50;27.08;;;;;;;3.07;100.00;98827.59;5054009;28;20033;-81
2023/11/29 05:35:17;;;;;;;43.05;23.95;;;;;;;2.98;100.00;98819.03;5071505;28;20040;-82
2023/11/29 05:37:42;;;;;;;38.88;20.17;;;;;;;2.94;100.00;98828.34;5053518;28;20032;-82
2023/11/29 05:40:09;;;;;;;45.55;18.77;;;;;;;2.79;100.00;98831.16;5071378;28;20024;-82
2023/11/29 05:42:35;;;;;;;32.08;17.58;;;;;;;2.72;100.00;98820.63;5071041;28;20413;-83
2023/11/29 05:45:03;;;;;;;29.42;17.60;;;;;;;2.52;100.00;98793.44;5053486;28;20032;-82
2023/11/29 05:47:29;;;;;;;35.13;19.80;;;;;;;2.57;100.00;98796.28;5071293;28;20401;-82
2023/11/29 05:49:55;;;;;;;33.97;19.25;;;;;;;2.71;100.00;98797.13;5053515;28;20024;-83
2023/11/29 05:52:20;;;;;;;65.78;36.42;;;;;;;2.84;100.00;98822.66;5053024;28;20024;-82
2023/11/29 05:54:46;;;;;;;45.88;25.55;;;;;;;2.73;100.00;98831.97;5071416;28;20044;-82
2023/11/29 05:57:12;;;;;;;37.65;21.58;;;;;;;2.81;100.00;98834.41;5052818;28;20030;-82
2023/11/29 05:59:38;;;;;;;33.28;18.50;;;;;;;2.66;100.00;98831.16;5070680;28;20028;-82
2023/11/29 06:02:05;;;;;;;30.55;16.40;;;;;;;2.41;100.00;98850.88;5053112;28;20052;-82
2023/11/29 06:04:32;;;;;;;39.00;22.08;;;;;;;2.18;100.00;98831.94;5052900;28;20481;-82
2023/11/29 06:06:57;;;;;;;44.90;25.90;;;;;;;2.67;100.00;98851.19;5071348;28;20035;-83
2023/11/29 06:09:28;;;;;;;49.20;25.92;;;;;;;2.53;100.00;98818.72;5053085;28;20032;-82
2023/11/29 06:11:59;;;;;;;48.72;24.08;;;;;;;2.75;100.00;98846.53;5053167;28;20405;-82
2023/11/29 06:14:25;;;;;;;36.10;21.48;;;;;;;2.80;100.00;98856.50;5052941;28;20040;-82
2023/11/29 06:16:51;;;;;;;61.95;33.03;;;;;;;2.81;100.00;98840.47;5053193;28;20478;-82
2023/11/29 06:19:17;;;;;;;61.63;27.92;;;;;;;2.65;100.00;98861.09;5047887;28;20049;-83
2023/11/29 06:21:42;;;;;;;47.72;26.75;;;;;;;2.62;100.00;98872.84;5033052;28;20112;-83
2023/11/29 06:24:09;;;;;;;51.65;30.95;;;;;;;2.38;100.00;98872.31;5032962;28;20029;-81
2023/11/29 06:26:36;;;;;;;48.50;30.02;;;;;;;2.50;100.00;98846.25;5033029;28;20021;-82
2023/11/29 06:29:01;;;;;;;57.88;38.85;;;;;;;2.78;100.00;98861.16;5032809;28;20031;-82
2023/11/29 06:31:27;;;;;;;51.15;33.20;;;;;;;3.11;100.00;98886.75;5033004;28;20124;-82
2023/11/29 06:33:55;;;;;;;40.50;26.30;;;;;;;3.15;100.00;98859.81;5032807;28;20068;-81
2023/11/29 06:36:20;;;;;;;32.75;20.08;;;;;;;3.32;100.00;98862.06;5032841;28;20031;-82
2023/11/29 06:38:46;;;;;;;33.88;19.88;;;;;;;3.53;100.00;98901.41;5014737;28;20033;-84
2023/11/29 06:41:11;;;;;;;32.33;21.05;;;;;;;3.45;100.00;98901.59;5013074;28;20111;-82
2023/11/29 06:43:37;;;;;;;46.47;26.73;;;;;;;3.50;100.00;98896.53;5015803;28;20158;-82
2023/11/29 06:46:03;;;;;;;53.25;30.27;;;;;;;3.55;100.00;98896.75;5034353;28;20464;-82
2023/11/29 06:48:29;;;;;;;56.00;33.75;;;;;;;3.79;100.00;98878.69;5028136;28;20128;-82
2023/11/29 06:50:55;;;;;;;55.80;32.60;;;;;;;4.63;100.00;98911.41;5050781;28;20473;-83
2023/11/29 06:53:20;;;;;;;59.42;33.67;;;;;;;6.25;100.00;98934.81;5032772;28;20061;-82
2023/11/29 06:55:48;;;;;;;39.90;23.33;;;;;;;7.27;100.00;98891.81;5032768;28;20083;-82
2023/11/29 06:58:14;;;;;;;33.72;22.02;;;;;;;7.50;100.00;98896.41;5047473;28;20051;-79
2023/11/29 07:00:40;;;;;;;28.40;19.58;;;;;;;8.22;100.00;98895.41;5050296;28;20103;-81
2023/11/29 07:03:05;;;;;;;28.63;17.80;;;;;;;7.65;100.00;98912.69;5032147;28;20033;-83
2023/11/29 07:05:31;;;;;;;29.20;17.75;;;;;;;9.56;100.00;98914.78;5050294;28;20108;-82
2023/11/29 07:07:56;;;;;;;28.42;18.20;;;;;;;9.10;100.00;98912.13;5032641;28;20037;-83
2023/11/29 07:10:23;;;;;;;25.45;16.20;;;;;;;10.20;96.55;98946.44;5034815;28;20055;-83
2023/11/29 07:12:48;;;;;;;28.08;16.35;;;;;;;10.59;91.77;98935.84;5036027;28;20056;-81
2023/11/29 07:15:15;;;;;;;25.13;16.35;;;;;;;9.75;96.30;98934.81;5028622;28;20061;-82
2023/11/29 07:17:41;;;;;;;22.27;14.48;;;;;;;9.04;97.32;98935.16;5049599;28;20032;-83
2023/11/29 07:20:07;;;;;;;23.75;16.08;;;;;;;8.79;100.00;98924.81;5030822;28;20042;-82
2023/11/29 07:22:34;;;;;;;24.70;15.38;;;;;;;9.31;100.00;98955.06;5029626;28;20033;-81
2023/11/29 07:25:01;;;;;;;22.48;14.13;;;;;;;10.14;97.94;98947.41;5032877;28;20090;-82
2023/11/29 07:27:27;;;;;;;21.27;14.13;;;;;;;10.51;97.44;98968.25;5049527;28;20025;-82
2023/11/29 07:29:53;;;;;;;20.85;13.45;;;;;;;10.84;94.18;98968.16;5054281;28;20087;-81
2023/11/29 07:32:22;;;;;;;20.92;14.27;;;;;;;10.13;98.28;98940.47;5035946;28;20079;-82
2023/11/29 07:34:49;;;;;;;20.60;13.60;;;;;;;10.51;96.19;98941.59;5036148;28;20031;-82
2023/11/29 07:37:18;;;;;;;19.05;13.70;;;;;;;10.74;94.62;98948.53;5053700;28;20037;-81
2023/11/29 07:39:44;;;;;;;22.75;16.98;;;;;;;11.92;87.29;98947.94;5019385;28;20028;-81
2023/11/29 07:42:09;;;;;;;22.40;16.00;;;;;;;12.68;82.26;98957.53;5015891;28;20025;-81
2023/11/29 07:44:35;;;;;;;21.52;15.95;;;;;;;12.35;83.89;98939.97;5015946;28;20033;-81
2023/11/29 07:47:00;;;;;;;22.15;15.70;;;;;;;12.09;84.79;98971.84;5016667;28;20052;-80
2023/11/29 07:49:26;;;;;;;14.45;9.68;;;;;;;11.66;83.87;98939.66;5054907;28;21252;-81
2023/11/29 07:51:51;;;;;;;16.95;12.95;;;;;;;12.93;81.62;98964.06;5053601;28;20029;-80
2023/11/29 07:54:16;;;;;;;13.95;9.02;;;;;;;13.98;76.97;98995.97;5053499;28;20029;-81
2023/11/29 07:56:43;;;;;;;13.10;8.32;;;;;;;14.39;71.82;98989.78;5052003;28;20021;-81
2023/11/29 07:59:12;;;;;;;13.68;8.55;;;;;;;13.46;77.85;99004.97;5034526;28;20037;-81
2023/11/29 08:01:38;;;;;;;12.95;7.88;;;;;;;13.36;77.60;98996.91;5050508;28;20031;-81
2023/11/29 08:04:04;;;;;;;13.45;8.68;;;;;;;13.45;76.87;98976.59;5034641;28;20045;-84
2023/11/29 08:06:31;;;;;;;12.50;9.38;;;;;;;13.57;77.29;98995.91;5033348;28;20025;-81
2023/11/29 08:08:57;;;;;;;11.77;8.05;;;;;;;12.27;80.60;98967.97;5050309;28;20076;-81
2023/11/29 08:11:23;;;;;;;11.57;7.75;;;;;;;12.50;81.68;99014.91;5033636;28;20032;-80
2023/11/29 08:13:49;;;;;;;12.10;8.10;;;;;;;13.24;79.83;99024.72;5052542;28;20029;-80
2023/11/29 08:16:15;;;;;;;12.45;7.78;;;;;;;12.59;79.52;98999.22;5026302;28;20086;-80
2023/11/29 08:18:40;;;;;;;10.90;7.55;;;;;;;12.63;84.84;99009.13;5045721;28;20045;-80
2023/11/29 08:21:06;;;;;;;12.88;8.27;;;;;;;12.83;79.75;98987.06;5072180;28;20105;-81
2023/11/29 08:23:32;;;;;;;62.17;46.80;;;;;;;12.92;81.23;99000.72;5072436;28;20032;-83
2023/11/29 08:25:57;;;;;;;29.00;25.90;;;;;;;13.51;77.82;99007.69;5054651;28;20028;-80
2023/11/29 08:28:23;;;;;;;18.33;11.98;;;;;;;12.68;79.68;99005.69;5054877;28;20036;-80
2023/11/29 08:30:49;;;;;;;26.23;20.45;;;;;;;12.40;82.97;98994.28;5054632;28;20404;-82
2023/11/29 08:33:14;;;;;;;17.02;14.57;;;;;;;13.49;77.61;99015.19;5054535;28;20033;-80
2023/11/29 08:35:41;;;;;;;12.10;7.15;;;;;;;12.91;79.60;99009.00;5046782;28;20149;-82
2023/11/29 08:38:06;;;;;;;11.55;9.77;;;;;;;13.39;77.29;99009.78;5056299;28;20497;-80
2023/11/29 08:40:34;;;;;;;12.73;6.60;;;;;;;12.78;78.67;99003.06;5072265;28;20032;-80
2023/11/29 08:43:00;;;;;;;12.05;6.85;;;;;;;12.96;79.48;99028.59;5054229;28;20615;-80
2023/11/29 08:45:26;;;;;;;21.42;16.52;;;;;;;13.36;79.01;99011.13;5054229;28;20035;-80
2023/11/29 08:47:51;;;;;;;16.83;12.80;;;;;;;12.32;81.30;98996.59;5053818;28;20029;-80
2023/11/29 08:50:17;;;;;;;13.65;10.70;;;;;;;11.36;87.90;98990.09;5054142;28;20485;-80
2023/11/29 08:52:43;;;;;;;13.10;9.65;;;;;;;10.90;92.41;98987.69;5072206;28;20039;-78
2023/11/29 08:55:09;;;;;;;12.38;9.38;;;;;;;10.84;94.46;98997.47;5071708;28;20731;-80
2023/11/29 08:57:35;;;;;;;12.07;8.98;;;;;;;10.29;97.90;98960.97;5072049;28;20037;-79
2023/11/29 09:00:01;;;;;;;17.73;10.18;;;;;;;10.20;100.00;98970.44;5071994;28;20024;-80
2023/11/29 09:02:29;;;;;;;16.98;9.73;;;;;;;10.32;98.26;98959.69;5053998;28;20120;-79
2023/11/29 09:04:55;;;;;;;;;;;;;;;10.32;100.00;99003.16;5071863;28;20473;-80
2023/11/29 09:07:21;;;;;;;23.38;12.32;;;;;;;10.12;100.00;98974.28;5052025;28;19919;-80
2023/11/29 09:09:47;;;;;;;12.93;8.13;;;;;;;10.34;100.00;99002.88;5071318;28;20033;-79
2023/11/29 09:12:15;;;;;;;11.73;7.80;;;;;;;10.18;100.00;98985.84;5054469;28;20474;-80
2023/11/29 09:14:41;;;;;;;13.27;8.50;;;;;;;10.37;100.00;98995.22;5053799;28;20035;-79
2023/11/29 09:17:06;;;;;;;13.30;8.30;;;;;;;10.17;100.00;99002.88;5066241;28;20028;-80
2023/11/29 09:19:32;;;;;;;10.80;7.80;;;;;;;10.14;100.00;99004.16;5071208;28;20052;-79
2023/11/29 09:21:59;;;;;;;10.02;6.90;;;;;;;10.13;100.00;99004.41;5071589;28;20549;-79
2023/11/29 09:24:25;;;;;;;12.20;7.82;;;;;;;9.94;100.00;98999.31;5053546;28;20459;-78
2023/11/29 09:26:51;;;;;;;12.35;7.57;;;;;;;10.47;99.82;98991.09;5071258;28;20086;-78
2023/11/29 09:29:16;;;;;;;12.43;8.27;;;;;;;10.73;100.00;98993.06;5071105;28;20032;-80
2023/11/29 09:31:42;;;;;;;10.25;6.47;;;;;;;10.76;98.85;98991.78;5071380;28;20453;-79
2023/11/29 09:34:07;;;;;;;9.85;6.10;;;;;;;10.75;97.20;98990.97;5070774;28;20032;-79
2023/11/29 09:36:33;;;;;;;11.73;7.47;;;;;;;11.31;97.88;99008.72;5051042;28;20035;-80
2023/11/29 09:38:59;;;;;;;13.35;8.02;;;;;;;11.39;93.49;98984.28;5051283;28;20036;-83
2023/11/29 09:41:24;;;;;;;11.57;7.03;;;;;;;11.79;94.39;99020.44;5069358;28;20035;-81
2023/11/29 09:43:50;;;;;;;15.07;9.07;;;;;;;11.94;86.20;98993.91;5051041;28;20036;-81
2023/11/29 09:46:16;;;;;;;9.45;5.63;;;;;;;13.00;79.68;99016.28;5069145;28;20028;-81
2023/11/29 09:48:42;;;;;;;10.15;5.65;;;;;;;13.51;80.83;99006.88;5068913;28;20041;-82
2023/11/29 09:51:08;;;;;;;7.60;4.50;;;;;;;13.48;80.49;99004.72;5053319;28;20032;-82
2023/11/29 09:53:34;;;;;;;8.63;4.97;;;;;;;12.80;79.44;98971.50;5053053;28;20028;-81
2023/11/29 09:56:03;;;;;;;9.75;6.47;;;;;;;13.88;82.34;99012.03;5053455;28;20071;-82
2023/11/29 09:58:28;;;;;;;7.97;4.93;;;;;;;13.29;77.79;98988.31;5052462;28;20052;-81
2023/11/29 10:00:54;;;;;;;7.70;4.68;;;;;;;13.26;79.37;98998.47;5070665;28;20023;-82
2023/11/29 10:03:21;;;;;;;7.43;4.28;;;;;;;12.69;81.03;98969.03;5071124;28;20712;-80
2023/11/29 10:05:48;;;;;;;9.18;5.68;;;;;;;14.02;77.08;98993.56;5070939;28;20024;-80
2023/11/29 10:08:16;;;;;;;9.80;6.07;;;;;;;14.75;77.47;98987.88;5070961;28;20036;-80
2023/11/29 10:10:43;;;;;;;8.38;5.05;;;;;;;14.77;70.24;98950.84;5052790;28;20103;-80
2023/11/29 10:13:09;;;;;;;8.43;4.35;;;;;;;14.75;71.13;99003.16;5052384;28;20146;-80
2023/11/29 10:15:35;;;;;;;12.68;6.68;;;;;;;14.55;73.31;99007.47;5070836;28;20032;-82
2023/11/29 10:18:03;;;;;;;7.72;4.70;;;;;;;13.68;78.57;98971.81;5053217;28;20036;-80
2023/11/29 10:20:30;;;;;;;24.63;12.90;;;;;;;13.58;78.46;98986.00;5052397;28;20138;-78
2023/11/29 10:22:56;;;;;;;13.55;8.07;;;;;;;14.55;75.52;98979.84;5069759;28;20035;-79
2023/11/29 10:25:22;;;;;;;8.73;5.63;;;;;;;14.24;75.71;98998.63;5068169;28;20028;-78
2023/11/29 10:27:48;;;;;;;6.35;3.70;;;;;;;14.28;73.04;98999.69;5061093;28;20103;-78
2023/11/29 10:30:14;;;;;;;8.73;5.50;;;;;;;15.51;71.04;99009.31;5053120;28;20111;-79
2023/11/29 10:32:41;;;;;;;11.80;6.95;;;;;;;16.03;70.48;99006.03;5066958;28;20051;-79
2023/11/29 10:35:12;;;;;;;12.55;7.85;;;;;;;14.86;72.94;98988.66;5057619;28;20043;-79
2023/11/29 10:38:01;;;;;;;9.23;5.50;;;;;;;15.29;68.43;99021.25;5059350;28;20457;-79
2023/11/29 10:40:27;;;;;;;8.93;5.22;;;;;;;14.94;72.19;99006.09;5067762;28;20508;-79
2023/11/29 10:42:54;;;;;;;15.07;9.38;;;;;;;14.69;74.32;99013.13;5051891;28;20412;-78
2023/11/29 10:45:21;;;;;;;13.18;7.35;;;;;;;14.16;74.91;98975.88;5050837;28;20554;-78
2023/11/29 10:48:10;;;;;;;17.60;10.20;;;;;;;13.89;74.41;98981.47;5069368;28;20036;-79
2023/11/29 10:50:38;;;;;;;14.40;7.90;;;;;;;13.57;76.96;98942.34;5064335;28;20035;-79
2023/11/29 10:53:04;;;;;;;11.45;7.15;;;;;;;13.79;72.78;98971.56;5061095;28;20025;-78
2023/11/29 10:55:35;;;;;;;9.55;4.65;;;;;;;13.83;75.06;98978.00;5069343;28;20043;-80
2023/11/29 10:58:27;;;;;;;7.45;4.60;;;;;;;14.15;73.53;98987.66;5064892;28;20441;-79
2023/11/29 11:00:53;;;;;;;8.65;5.35;;;;;;;14.15;75.29;98989.53;5045598;28;20044;-78
2023/11/29 11:03:42;;;;;;;6.75;4.43;;;;;;;14.36;71.69;98985.75;5060764;28;20020;-78
2023/11/29 11:06:22;;;;;;;6.68;4.03;;;;;;;13.59;75.35;98972.34;5057872;28;20029;-77
2023/11/29 11:08:49;;;;;;;7.57;4.60;;;;;;;13.93;77.55;98966.47;5055891;28;20035;-79
2023/11/29 11:11:40;;;;;;;7.50;4.15;;;;;;;13.96;75.79;98959.78;5061216;28;20103;-79
2023/11/29 11:14:20;;;;;;;7.85;4.55;;;;;;;14.38;74.11;98961.34;5040593;28;20104;-78
2023/11/29 11:16:56;;;;;;;6.68;4.40;;;;;;;14.75;73.84;98955.69;5066537;28;20033;-78